createdAt,value
2019-04-07T00:00:54.518Z,84.55
2019-04-07T00:01:54.536Z,84.64
2019-04-07T00:02:54.607Z,84.74
2019-04-07T00:03:54.949Z,84.74
2019-04-07T00:04:54.621Z,84.45
2019-04-07T00:05:54.940Z,85.31
2019-04-07T00:06:54.629Z,85.12
2019-04-07T00:07:55.135Z,84.92
2019-04-07T00:08:54.667Z,85.02
2019-04-07T00:09:54.684Z,85.41
2019-04-07T00:10:54.701Z,85.12
2019-04-07T00:11:55.177Z,84.92
2019-04-07T00:12:54.736Z,85.31
2019-04-07T00:13:55.208Z,85.50
2019-04-07T00:14:55.221Z,85.50
2019-04-07T00:15:54.790Z,85.60
2019-04-07T00:16:54.809Z,85.31
2019-04-07T00:17:55.334Z,85.21
2019-04-07T00:18:54.849Z,85.88
2019-04-07T00:19:54.864Z,85.60
2019-04-07T00:20:55.216Z,85.41
2019-04-07T00:21:55.525Z,85.60
2019-04-07T00:22:55.213Z,85.64
2019-04-07T00:23:55.560Z,85.17
2019-04-07T00:24:55.598Z,85.17
2019-04-07T00:25:54.975Z,85.55
2019-04-07T00:26:54.991Z,85.36
2019-04-07T00:27:55.071Z,85.27
2019-04-07T00:28:55.026Z,85.64
2019-04-07T00:29:55.472Z,85.46
2019-04-07T00:30:55.063Z,86.03
2019-04-07T00:31:55.706Z,86.32
2019-04-07T00:32:55.101Z,86.41
2019-04-07T00:33:55.118Z,86.41
2019-04-07T00:34:55.268Z,86.41
2019-04-07T00:35:55.847Z,86.51
2019-04-07T00:36:55.722Z,86.69
2019-04-07T00:37:55.192Z,87.36
2019-04-07T00:38:55.209Z,86.88
2019-04-07T00:39:55.228Z,86.88
2019-04-07T00:40:55.529Z,87.07
2019-04-07T00:41:55.262Z,87.46
2019-04-07T00:42:55.546Z,87.36
2019-04-07T00:43:55.299Z,87.46
2019-04-07T00:44:55.419Z,87.84
2019-04-07T00:45:55.886Z,87.65
2019-04-07T00:46:55.351Z,87.36
2019-04-07T00:47:55.899Z,87.74
2019-04-07T00:48:55.390Z,87.79
2019-04-07T00:49:55.589Z,87.93
2019-04-07T00:50:55.905Z,87.79
2019-04-07T00:51:55.442Z,87.89
2019-04-07T00:52:55.507Z,87.60
2019-04-07T00:53:56.097Z,87.79
2019-04-07T00:54:56.132Z,87.79
2019-04-07T00:55:56.207Z,87.98
2019-04-07T00:56:55.648Z,87.84
2019-04-07T00:57:56.137Z,88.18
2019-04-07T00:58:55.568Z,88.27
2019-04-07T00:59:56.023Z,88.84
2019-04-07T01:00:55.600Z,88.56
2019-04-07T01:01:55.622Z,88.46
2019-04-07T01:02:56.128Z,89.13
2019-04-07T01:03:55.700Z,88.93
2019-04-07T01:04:56.132Z,88.84
2019-04-07T01:05:56.044Z,89.32
2019-04-07T01:06:56.018Z,88.93
2019-04-07T01:07:56.283Z,89.13
2019-04-07T01:08:55.744Z,89.22
2019-04-07T01:09:55.775Z,89.32
2019-04-07T01:10:55.898Z,89.32
2019-04-07T01:11:55.796Z,89.61
2019-04-07T01:12:56.394Z,89.98
2019-04-07T01:13:55.834Z,89.51
2019-04-07T01:14:56.550Z,89.79
2019-04-07T01:15:56.072Z,89.98
2019-04-07T01:16:56.174Z,89.89
2019-04-07T01:17:55.901Z,89.89
2019-04-07T01:18:55.926Z,89.79
2019-04-07T01:19:56.079Z,89.79
2019-04-07T01:20:56.006Z,90.36
2019-04-07T01:21:56.010Z,90.27
2019-04-07T01:22:56.159Z,90.27
2019-04-07T01:23:56.082Z,90.65
2019-04-07T01:24:56.071Z,90.17
2019-04-07T01:25:56.070Z,89.79
2019-04-07T01:26:56.067Z,89.98
2019-04-07T01:27:56.580Z,90.36
2019-04-07T01:28:56.110Z,90.17
2019-04-07T01:29:56.416Z,90.08
2019-04-07T01:30:56.811Z,89.89
2019-04-07T01:31:56.149Z,89.89
2019-04-07T01:32:56.329Z,90.08
2019-04-07T01:33:56.407Z,90.13
2019-04-07T01:34:56.201Z,90.13
2019-04-07T01:35:56.416Z,91.08
2019-04-07T01:36:56.733Z,90.80
2019-04-07T01:37:56.255Z,90.84
2019-04-07T01:38:56.513Z,90.80
2019-04-07T01:39:56.356Z,90.42
2019-04-07T01:40:56.552Z,90.42
2019-04-07T01:41:56.324Z,90.61
2019-04-07T01:42:56.402Z,90.61
2019-04-07T01:43:56.763Z,90.99
2019-04-07T01:44:56.376Z,90.80
2019-04-07T01:45:56.403Z,90.84
2019-04-07T01:46:56.914Z,90.89
2019-04-07T01:47:56.427Z,90.80
2019-04-07T01:48:56.445Z,90.99
2019-04-07T01:49:56.599Z,90.51
2019-04-07T01:50:57.116Z,90.99
2019-04-07T01:51:56.506Z,91.46
2019-04-07T01:52:57.043Z,91.46
2019-04-07T01:53:56.538Z,91.37
2019-04-07T01:54:56.892Z,91.17
2019-04-07T01:55:56.567Z,91.27
2019-04-07T01:56:56.584Z,91.46
2019-04-07T01:57:56.605Z,90.99
2019-04-07T01:58:57.099Z,90.99
2019-04-07T01:59:57.313Z,90.80
2019-04-07T02:00:56.661Z,90.89
2019-04-07T02:01:57.064Z,90.70
2019-04-07T02:02:56.720Z,90.99
2019-04-07T02:03:57.226Z,90.89
2019-04-07T02:04:56.721Z,91.46
2019-04-07T02:06:01.504Z,91.56
2019-04-07T02:06:57.519Z,91.46
2019-04-07T02:07:56.773Z,91.27
2019-04-07T02:08:57.103Z,91.37
2019-04-07T02:09:57.263Z,91.46
2019-04-07T02:10:57.142Z,91.65
2019-04-07T02:11:56.844Z,91.65
2019-04-07T02:12:56.877Z,91.56
2019-04-07T02:13:56.876Z,91.46
2019-04-07T02:14:57.500Z,92.03
2019-04-07T02:15:57.652Z,91.27
2019-04-07T02:16:57.710Z,91.65
2019-04-07T02:17:57.051Z,91.84
2019-04-07T02:18:56.996Z,91.46
2019-04-07T02:19:57.091Z,91.84
2019-04-07T02:20:57.590Z,91.84
2019-04-07T02:21:57.016Z,91.84
2019-04-07T02:22:57.308Z,91.65
2019-04-07T02:23:57.543Z,91.56
2019-04-07T02:24:57.565Z,91.46
2019-04-07T02:25:57.083Z,91.65
2019-04-07T02:26:57.623Z,91.94
2019-04-07T02:27:57.261Z,91.70
2019-04-07T02:28:57.222Z,91.99
2019-04-07T02:29:57.841Z,91.56
2019-04-07T02:30:57.362Z,91.56
2019-04-07T02:31:58.346Z,91.65
2019-04-07T02:32:58.085Z,92.03
2019-04-07T02:33:57.501Z,91.51
2019-04-07T02:34:57.505Z,91.42
2019-04-07T02:36:12.153Z,91.13
2019-04-07T02:36:58.127Z,91.42
2019-04-07T02:37:57.291Z,91.32
2019-04-07T02:38:58.072Z,91.03
2019-04-07T02:39:57.327Z,91.42
2019-04-07T02:40:57.342Z,91.32
2019-04-07T02:41:57.359Z,91.42
2019-04-07T02:42:57.536Z,91.42
2019-04-07T02:43:57.618Z,91.42
2019-04-07T02:44:57.454Z,91.32
2019-04-07T02:45:57.895Z,91.61
2019-04-07T02:46:57.445Z,91.42
2019-04-07T02:47:57.696Z,92.08
2019-04-07T02:48:57.774Z,92.46
2019-04-07T02:49:57.500Z,92.75
2019-04-07T02:50:57.512Z,92.84
2019-04-07T02:51:57.526Z,92.84
2019-04-07T02:52:57.551Z,92.75
2019-04-07T02:53:59.206Z,92.84
2019-04-07T02:54:57.580Z,92.75
2019-04-07T02:55:57.619Z,92.84
2019-04-07T02:56:57.617Z,92.75
2019-04-07T02:57:58.253Z,92.75
2019-04-07T02:58:58.134Z,92.56
2019-04-07T02:59:57.850Z,92.75
2019-04-07T03:00:57.793Z,92.27
2019-04-07T03:01:57.808Z,92.08
2019-04-07T03:02:58.094Z,92.75
2019-04-07T03:03:57.822Z,92.36
2019-04-07T03:04:58.493Z,92.65
2019-04-07T03:05:58.286Z,92.46
2019-04-07T03:06:58.464Z,92.46
2019-04-07T03:07:57.865Z,92.46
2019-04-07T03:08:57.871Z,92.84
2019-04-07T03:09:57.877Z,92.84
2019-04-07T03:10:58.611Z,92.65
2019-04-07T03:11:57.892Z,92.75
2019-04-07T03:12:58.705Z,92.46
2019-04-07T03:13:58.642Z,92.84
2019-04-07T03:14:58.483Z,92.65
2019-04-07T03:15:57.946Z,92.94
2019-04-07T03:16:57.965Z,92.84
2019-04-07T03:17:57.969Z,92.65
2019-04-07T03:18:58.057Z,92.75
2019-04-07T03:19:57.993Z,92.27
2019-04-07T03:20:58.012Z,92.75
2019-04-07T03:21:58.029Z,92.65
2019-04-07T03:22:58.788Z,93.04
2019-04-07T03:23:58.568Z,92.65
2019-04-07T03:24:58.251Z,92.75
2019-04-07T03:25:58.202Z,92.56
2019-04-07T03:26:58.115Z,92.75
2019-04-07T03:27:58.127Z,92.84
2019-04-07T03:28:58.150Z,92.70
2019-04-07T03:29:58.927Z,93.13
2019-04-07T03:30:59.090Z,92.99
2019-04-07T03:31:59.515Z,92.61
2019-04-07T03:33:00.571Z,92.70
2019-04-07T03:33:59.556Z,92.51
2019-04-07T03:34:58.373Z,92.70
2019-04-07T03:36:02.009Z,92.70
2019-04-07T03:37:28.846Z,92.41
2019-04-07T03:37:59.118Z,92.32
2019-04-07T03:38:59.002Z,92.70
2019-04-07T03:39:58.873Z,92.61
2019-04-07T03:40:58.992Z,92.70
2019-04-07T03:41:59.305Z,92.61
2019-04-07T03:42:59.303Z,92.70
2019-04-07T03:43:59.152Z,92.61
2019-04-07T03:44:58.719Z,92.99
2019-04-07T03:45:59.026Z,92.89
2019-04-07T03:46:59.626Z,93.18
2019-04-07T03:47:58.916Z,93.37
2019-04-07T03:48:58.490Z,93.37
2019-04-07T03:49:59.616Z,93.18
2019-04-07T03:50:59.982Z,93.84
2019-04-07T03:51:58.529Z,93.18
2019-04-07T03:52:58.764Z,93.46
2019-04-07T03:53:59.356Z,93.27
2019-04-07T03:54:58.869Z,93.65
2019-04-07T03:55:58.596Z,93.75
2019-04-07T03:56:58.626Z,93.94
2019-04-07T03:57:58.631Z,93.65
2019-04-07T03:58:58.648Z,94.22
2019-04-07T03:59:59.464Z,94.03
2019-04-07T04:00:58.770Z,94.22
2019-04-07T04:01:59.160Z,94.42
2019-04-07T04:02:59.348Z,93.75
2019-04-07T04:03:59.218Z,94.22
2019-04-07T04:04:59.604Z,94.32
2019-04-07T04:05:59.053Z,94.13
2019-04-07T04:06:58.793Z,94.51
2019-04-07T04:07:58.795Z,94.32
2019-04-07T04:08:58.814Z,94.42
2019-04-07T04:09:58.830Z,94.18
2019-04-07T04:10:59.938Z,94.27
2019-04-07T04:11:59.617Z,94.51
2019-04-07T04:12:58.880Z,94.84
2019-04-07T04:13:58.895Z,94.65
2019-04-07T04:15:00.081Z,94.46
2019-04-07T04:15:58.972Z,94.65
2019-04-07T04:16:58.945Z,94.84
2019-04-07T04:17:58.974Z,94.56
2019-04-07T04:18:59.932Z,94.65
2019-04-07T04:19:58.996Z,94.74
2019-04-07T04:20:59.550Z,94.93
2019-04-07T04:21:59.027Z,95.32
2019-04-07T04:22:59.729Z,95.22
2019-04-07T04:23:59.105Z,95.32
2019-04-07T04:24:59.451Z,95.22
2019-04-07T04:25:59.116Z,95.22
2019-04-07T04:26:59.186Z,95.41
2019-04-07T04:27:59.242Z,95.41
2019-04-07T04:28:59.842Z,95.51
2019-04-07T04:29:59.236Z,95.70
2019-04-07T04:30:59.888Z,95.51
2019-04-07T04:31:59.712Z,95.70
2019-04-07T04:32:59.748Z,95.41
2019-04-07T04:33:59.237Z,95.41
2019-04-07T04:34:59.488Z,95.51
2019-04-07T04:35:59.257Z,95.51
2019-04-07T04:36:59.939Z,95.79
2019-04-07T04:37:59.762Z,96.17
2019-04-07T04:39:00.484Z,95.60
2019-04-07T04:39:59.709Z,95.60
2019-04-07T04:41:00.105Z,96.26
2019-04-07T04:41:59.930Z,95.70
2019-04-07T04:42:59.369Z,95.70
2019-04-07T04:44:00.390Z,95.70
2019-04-07T04:44:59.401Z,95.51
2019-04-07T04:46:00.001Z,96.17
2019-04-07T04:47:00.348Z,96.36
2019-04-07T04:48:00.110Z,96.08
2019-04-07T04:48:59.475Z,96.65
2019-04-07T04:49:59.848Z,96.36
2019-04-07T04:50:59.895Z,96.74
2019-04-07T04:52:00.310Z,97.03
2019-04-07T04:52:59.901Z,96.45
2019-04-07T04:54:00.367Z,96.65
2019-04-07T04:55:00.369Z,96.93
2019-04-07T04:55:59.581Z,97.03
2019-04-07T04:57:00.159Z,96.74
2019-04-07T04:57:59.627Z,96.84
2019-04-07T04:58:59.803Z,97.03
2019-04-07T04:59:59.647Z,96.84
2019-04-07T05:00:59.738Z,96.84
2019-04-07T05:02:00.035Z,96.84
2019-04-07T05:03:00.968Z,97.03
2019-04-07T05:04:00.617Z,96.84
2019-04-07T05:05:00.476Z,96.93
2019-04-07T05:05:59.805Z,96.74
2019-04-07T05:06:59.813Z,96.65
2019-04-07T05:08:03.579Z,96.55
2019-04-07T05:08:59.805Z,96.65
2019-04-07T05:10:00.066Z,96.36
2019-04-07T05:10:59.970Z,96.36
2019-04-07T05:11:59.840Z,96.36
2019-04-07T05:13:00.448Z,96.36
2019-04-07T05:14:00.279Z,96.74
2019-04-07T05:15:00.371Z,96.74
2019-04-07T05:16:00.517Z,96.55
2019-04-07T05:17:00.589Z,96.45
2019-04-07T05:18:00.353Z,96.36
2019-04-07T05:18:59.960Z,96.45
2019-04-07T05:20:00.202Z,96.45
2019-04-07T05:21:00.533Z,96.55
2019-04-07T05:22:00.007Z,96.55
2019-04-07T05:23:00.040Z,96.36
2019-04-07T05:24:00.289Z,96.74
2019-04-07T05:25:00.058Z,96.60
2019-04-07T05:26:00.421Z,96.41
2019-04-07T05:27:00.091Z,95.94
2019-04-07T05:28:00.107Z,96.22
2019-04-07T05:29:00.449Z,96.31
2019-04-07T05:30:00.167Z,96.12
2019-04-07T05:31:00.157Z,96.12
2019-04-07T05:32:00.237Z,96.22
2019-04-07T05:33:00.908Z,96.31
2019-04-07T05:34:00.383Z,95.84
2019-04-07T05:35:00.224Z,95.84
2019-04-07T05:36:00.529Z,95.65
2019-04-07T05:37:00.255Z,95.56
2019-04-07T05:38:04.096Z,95.46
2019-04-07T05:39:00.816Z,95.08
2019-04-07T05:40:02.704Z,95.27
2019-04-07T05:41:00.361Z,94.89
2019-04-07T05:42:00.347Z,95.08
2019-04-07T05:43:00.784Z,94.70
2019-04-07T05:44:00.370Z,95.08
2019-04-07T05:45:00.594Z,94.74
2019-04-07T05:46:00.822Z,94.74
2019-04-07T05:47:00.689Z,94.93
2019-04-07T05:48:00.460Z,95.03
2019-04-07T05:49:00.525Z,94.46
2019-04-07T05:50:02.955Z,94.37
2019-04-07T05:51:01.027Z,94.08
2019-04-07T05:52:04.131Z,94.18
2019-04-07T05:53:00.527Z,94.18
2019-04-07T05:54:00.543Z,94.37
2019-04-07T05:55:01.280Z,94.27
2019-04-07T05:56:01.027Z,94.27
2019-04-07T05:57:01.514Z,94.46
2019-04-07T05:58:03.416Z,94.37
2019-04-07T05:59:00.632Z,93.98
2019-04-07T06:00:01.312Z,94.08
2019-04-07T06:01:00.664Z,93.98
2019-04-07T06:02:01.815Z,94.18
2019-04-07T06:03:04.268Z,94.08
2019-04-07T06:04:01.217Z,93.98
2019-04-07T06:05:01.186Z,93.65
2019-04-07T06:06:00.752Z,93.74
2019-04-07T06:07:00.780Z,94.03
2019-04-07T06:08:06.308Z,93.84
2019-04-07T06:09:00.805Z,93.27
2019-04-07T06:10:01.016Z,93.37
2019-04-07T06:11:02.325Z,93.55
2019-04-07T06:12:01.111Z,93.65
2019-04-07T06:13:00.876Z,93.37
2019-04-07T06:14:00.935Z,92.89
2019-04-07T06:15:00.910Z,92.99
2019-04-07T06:16:00.925Z,93.08
2019-04-07T06:17:00.971Z,92.51
2019-04-07T06:18:01.477Z,92.89
2019-04-07T06:19:04.868Z,92.60
2019-04-07T06:20:01.466Z,92.79
2019-04-07T06:21:01.022Z,92.89
2019-04-07T06:22:01.372Z,92.79
2019-04-07T06:23:01.936Z,92.36
2019-04-07T06:24:01.067Z,92.36
2019-04-07T06:25:02.691Z,91.70
2019-04-07T06:26:01.103Z,91.70
2019-04-07T06:27:01.131Z,91.51
2019-04-07T06:28:01.140Z,91.22
2019-04-07T06:29:01.569Z,91.41
2019-04-07T06:30:01.174Z,91.31
2019-04-07T06:31:02.025Z,91.31
2019-04-07T06:32:03.693Z,91.03
2019-04-07T06:33:01.604Z,91.03
2019-04-07T06:34:01.247Z,90.75
2019-04-07T06:35:01.848Z,90.27
2019-04-07T06:36:01.281Z,90.31
2019-04-07T06:37:01.300Z,89.84
2019-04-07T06:38:05.246Z,89.84
2019-04-07T06:39:01.413Z,89.75
2019-04-07T06:40:01.362Z,89.84
2019-04-07T06:41:02.339Z,89.84
2019-04-07T06:42:02.411Z,89.84
2019-04-07T06:43:04.376Z,89.46
2019-04-07T06:44:10.078Z,89.75
2019-04-07T06:45:01.649Z,89.65
2019-04-07T06:46:01.718Z,89.36
2019-04-07T06:47:03.498Z,89.55
2019-04-07T06:48:04.450Z,89.55
2019-04-07T06:49:01.602Z,89.89
2019-04-07T06:50:02.157Z,89.69
2019-04-07T06:51:01.731Z,89.12
2019-04-07T06:52:03.624Z,88.74
2019-04-07T06:53:02.221Z,89.03
2019-04-07T06:54:02.294Z,88.93
2019-04-07T06:55:01.669Z,88.93
2019-04-07T06:56:03.255Z,89.22
2019-04-07T06:57:04.404Z,89.31
2019-04-07T06:58:02.096Z,89.54
2019-04-07T06:59:01.814Z,88.88
2019-04-07T07:00:02.317Z,88.21
2019-04-07T07:01:03.324Z,86.73
2019-04-07T07:02:02.247Z,86.54
2019-04-07T07:03:04.206Z,86.44
2019-04-07T07:04:01.867Z,85.91
2019-04-07T07:05:01.818Z,85.05
2019-04-07T07:06:01.836Z,84.86
2019-04-07T07:07:02.341Z,84.39
2019-04-07T07:08:01.963Z,84.10
2019-04-07T07:09:01.987Z,84.10
2019-04-07T07:10:02.230Z,84.10
2019-04-07T07:11:01.958Z,83.62
2019-04-07T07:12:01.971Z,83.18
2019-04-07T07:13:05.080Z,83.47
2019-04-07T07:14:02.176Z,83.28
2019-04-07T07:15:03.314Z,83.67
2019-04-07T07:16:05.200Z,83.18
2019-04-07T07:17:02.948Z,83.38
2019-04-07T07:18:02.462Z,83.18
2019-04-07T07:19:02.295Z,83.57
2019-04-07T07:20:04.340Z,83.28
2019-04-07T07:21:03.711Z,82.90
2019-04-07T07:22:02.274Z,82.42
2019-04-07T07:23:02.651Z,82.23
2019-04-07T07:24:02.366Z,81.70
2019-04-07T07:25:03.034Z,81.79
2019-04-07T07:26:03.291Z,81.79
2019-04-07T07:27:02.657Z,81.13
2019-04-07T07:28:02.271Z,80.84
2019-04-07T07:29:03.079Z,81.03
2019-04-07T07:30:02.545Z,81.13
2019-04-07T07:31:02.332Z,80.65
2019-04-07T07:32:03.971Z,80.79
2019-04-07T07:33:02.866Z,80.59
2019-04-07T07:34:02.825Z,80.30
2019-04-07T07:35:02.974Z,80.30
2019-04-07T07:36:02.504Z,80.21
2019-04-07T07:37:02.994Z,79.87
2019-04-07T07:38:02.754Z,79.39
2019-04-07T07:39:05.252Z,79.39
2019-04-07T07:40:03.886Z,78.81
2019-04-07T07:41:03.637Z,78.95
2019-04-07T07:42:02.899Z,78.95
2019-04-07T07:43:03.401Z,78.42
2019-04-07T07:44:03.731Z,77.94
2019-04-07T07:45:02.694Z,76.79
2019-04-07T07:46:03.082Z,76.64
2019-04-07T07:47:02.738Z,75.48
2019-04-07T07:48:03.120Z,74.72
2019-04-07T07:49:02.704Z,73.95
2019-04-07T07:50:05.386Z,73.80
2019-04-07T07:51:03.941Z,73.61
2019-04-07T07:52:02.772Z,73.13
2019-04-07T07:53:03.550Z,72.11
2019-04-07T07:54:03.448Z,72.30
2019-04-07T07:55:03.748Z,72.11
2019-04-07T07:56:03.177Z,71.44
2019-04-07T07:57:02.880Z,71.63
2019-04-07T07:58:02.948Z,71.78
2019-04-07T07:59:03.526Z,72.64
2019-04-07T08:00:06.186Z,73.13
2019-04-07T08:01:03.306Z,73.03
2019-04-07T08:02:03.426Z,73.70
2019-04-07T08:03:03.653Z,73.38
2019-04-07T08:04:03.547Z,73.57
2019-04-07T08:05:03.182Z,74.05
2019-04-07T08:06:06.363Z,73.86
2019-04-07T08:07:03.099Z,73.66
2019-04-07T08:08:03.598Z,74.82
2019-04-07T08:09:11.593Z,74.15
2019-04-07T08:10:03.165Z,74.33
2019-04-07T08:11:03.186Z,74.72
2019-04-07T08:12:03.571Z,75.01
2019-04-07T08:13:06.824Z,74.52
2019-04-07T08:14:03.421Z,75.10
2019-04-07T08:15:03.278Z,74.91
2019-04-07T08:16:03.764Z,75.10
2019-04-07T08:17:03.980Z,75.54
2019-04-07T08:18:06.982Z,75.83
2019-04-07T08:19:03.864Z,76.06
2019-04-07T08:20:03.380Z,76.02
2019-04-07T08:21:03.401Z,76.79
2019-04-07T08:22:03.507Z,75.26
2019-04-07T08:23:03.686Z,75.54
2019-04-07T08:24:03.667Z,75.16
2019-04-07T08:25:04.084Z,75.35
2019-04-07T08:26:03.910Z,75.93
2019-04-07T08:27:04.025Z,75.26
2019-04-07T08:28:04.542Z,74.87
2019-04-07T08:29:05.934Z,74.97
2019-04-07T08:30:03.830Z,74.87
2019-04-07T08:31:04.380Z,74.87
2019-04-07T08:32:04.176Z,74.30
2019-04-07T08:33:03.660Z,74.58
2019-04-07T08:34:03.766Z,74.58
2019-04-07T08:35:05.586Z,74.30
2019-04-07T08:36:04.344Z,74.20
2019-04-07T08:37:03.820Z,74.20
2019-04-07T08:38:04.535Z,74.01
2019-04-07T08:39:03.845Z,74.62
2019-04-07T08:40:07.118Z,74.97
2019-04-07T08:41:04.195Z,75.07
2019-04-07T08:42:09.573Z,75.77
2019-04-07T08:43:03.885Z,75.16
2019-04-07T08:44:03.886Z,75.87
2019-04-07T08:45:04.591Z,74.58
2019-04-07T08:46:04.789Z,74.72
2019-04-07T08:47:03.954Z,74.15
2019-04-07T08:48:04.128Z,74.82
2019-04-07T08:49:03.992Z,75.20
2019-04-07T08:50:04.012Z,75.20
2019-04-07T08:51:04.654Z,75.58
2019-04-07T08:52:08.783Z,75.20
2019-04-07T08:53:04.343Z,76.15
2019-04-07T08:54:04.708Z,76.25
2019-04-07T08:55:04.964Z,76.25
2019-04-07T08:56:06.715Z,76.48
2019-04-07T08:57:04.572Z,76.67
2019-04-07T08:58:05.606Z,75.62
2019-04-07T08:59:07.661Z,74.18
2019-04-07T09:00:05.052Z,74.66
2019-04-07T09:01:04.246Z,74.76
2019-04-07T09:02:04.334Z,74.47
2019-04-07T09:03:10.547Z,74.37
2019-04-07T09:04:04.493Z,74.85
2019-04-07T09:05:04.450Z,75.23
2019-04-07T09:06:04.746Z,74.76
2019-04-07T09:07:05.121Z,74.76
2019-04-07T09:08:06.052Z,73.93
2019-04-07T09:09:07.152Z,72.59
2019-04-07T09:10:04.439Z,72.20
2019-04-07T09:11:04.643Z,73.26
2019-04-07T09:12:04.845Z,72.88
2019-04-07T09:13:07.992Z,72.11
2019-04-07T09:14:06.395Z,71.15
2019-04-07T09:15:05.283Z,70.67
2019-04-07T09:16:04.714Z,70.67
2019-04-07T09:17:04.704Z,70.57
2019-04-07T09:18:04.610Z,70.29
2019-04-07T09:19:06.816Z,69.71
2019-04-07T09:20:08.466Z,69.52
2019-04-07T09:21:04.678Z,70.76
2019-04-07T09:22:04.698Z,70.48
2019-04-07T09:23:06.627Z,69.52
2019-04-07T09:24:04.997Z,69.33
2019-04-07T09:25:08.500Z,69.52
2019-04-07T09:26:05.437Z,69.13
2019-04-07T09:27:04.806Z,68.66
2019-04-07T09:28:04.834Z,68.66
2019-04-07T09:29:05.162Z,68.08
2019-04-07T09:30:07.629Z,68.46
2019-04-07T09:31:04.900Z,68.95
2019-04-07T09:32:05.437Z,69.90
2019-04-07T09:33:04.936Z,70.29
2019-04-07T09:34:04.958Z,71.05
2019-04-07T09:35:07.037Z,70.00
2019-04-07T09:36:05.171Z,69.33
2019-04-07T09:37:05.731Z,69.71
2019-04-07T09:38:05.041Z,70.32
2019-04-07T09:39:05.617Z,68.88
2019-04-07T09:40:05.672Z,67.92
2019-04-07T09:41:05.116Z,68.12
2019-04-07T09:42:05.209Z,68.40
2019-04-07T09:43:05.442Z,68.02
2019-04-07T09:44:05.278Z,68.30
2019-04-07T09:45:07.375Z,67.44
2019-04-07T09:46:05.216Z,66.86
2019-04-07T09:47:05.242Z,67.25
2019-04-07T09:48:05.262Z,69.17
2019-04-07T09:49:05.281Z,67.92
2019-04-07T09:50:05.317Z,68.05
2019-04-07T09:51:07.340Z,68.24
2019-04-07T09:52:05.687Z,68.24
2019-04-07T09:53:05.388Z,69.01
2019-04-07T09:54:05.605Z,68.34
2019-04-07T09:55:08.129Z,67.29
2019-04-07T09:56:08.593Z,66.80
2019-04-07T09:57:07.019Z,66.42
2019-04-07T09:58:08.069Z,66.23
2019-04-07T09:59:05.503Z,65.56
2019-04-07T10:00:07.298Z,66.13
2019-04-07T10:01:06.920Z,66.03
2019-04-07T10:02:06.407Z,65.84
2019-04-07T10:03:08.571Z,65.46
2019-04-07T10:04:07.066Z,65.08
2019-04-07T10:05:05.632Z,64.69
2019-04-07T10:06:09.896Z,63.92
2019-04-07T10:07:09.226Z,63.45
2019-04-07T10:08:07.123Z,64.22
2019-04-07T10:09:05.720Z,63.86
2019-04-07T10:10:11.621Z,63.45
2019-04-07T10:11:05.768Z,63.76
2019-04-07T10:12:06.381Z,64.43
2019-04-07T10:13:06.603Z,63.48
2019-04-07T10:14:06.318Z,63.96
2019-04-07T10:15:06.456Z,63.09
2019-04-07T10:16:08.858Z,62.61
2019-04-07T10:17:06.450Z,62.90
2019-04-07T10:18:05.925Z,62.71
2019-04-07T10:19:05.942Z,62.71
2019-04-07T10:20:06.450Z,62.61
2019-04-07T10:21:05.985Z,63.48
2019-04-07T10:22:06.011Z,63.38
2019-04-07T10:23:06.032Z,64.05
2019-04-07T10:24:06.262Z,64.53
2019-04-07T10:25:06.076Z,64.25
2019-04-07T10:26:06.096Z,64.15
2019-04-07T10:27:06.909Z,64.05
2019-04-07T10:28:08.884Z,64.25
2019-04-07T10:29:06.164Z,63.96
2019-04-07T10:30:06.745Z,63.28
2019-04-07T10:31:06.209Z,62.61
2019-04-07T10:32:06.411Z,62.26
2019-04-07T10:33:06.716Z,61.97
2019-04-07T10:34:07.243Z,62.04
2019-04-07T10:35:06.883Z,63.41
2019-04-07T10:36:07.741Z,64.95
2019-04-07T10:37:06.780Z,64.28
2019-04-07T10:38:06.367Z,63.70
2019-04-07T10:39:07.185Z,63.02
2019-04-07T10:40:16.770Z,62.16
2019-04-07T10:41:06.763Z,62.84
2019-04-07T10:42:06.753Z,62.55
2019-04-07T10:43:06.612Z,62.26
2019-04-07T10:44:07.355Z,61.58
2019-04-07T10:45:07.244Z,61.40
2019-04-07T10:46:06.772Z,62.10
2019-04-07T10:47:07.093Z,62.77
2019-04-07T10:48:06.982Z,61.55
2019-04-07T10:49:06.820Z,59.92
2019-04-07T10:50:08.522Z,59.53
2019-04-07T10:51:06.797Z,59.92
2019-04-07T10:52:06.947Z,59.94
2019-04-07T10:53:06.723Z,60.04
2019-04-07T10:54:06.746Z,60.14
2019-04-07T10:55:07.324Z,59.69
2019-04-07T10:56:06.879Z,59.69
2019-04-07T10:57:07.440Z,59.62
2019-04-07T10:58:07.264Z,58.85
2019-04-07T10:59:06.882Z,57.69
2019-04-07T11:00:07.520Z,57.43
2019-04-07T11:01:06.940Z,56.69
2019-04-07T11:02:07.018Z,55.92
2019-04-07T11:03:06.994Z,55.18
2019-04-07T11:04:07.022Z,55.18
2019-04-07T11:05:07.081Z,54.82
2019-04-07T11:06:07.324Z,53.88
2019-04-07T11:07:07.177Z,53.59
2019-04-07T11:08:07.219Z,53.91
2019-04-07T11:09:07.899Z,54.49
2019-04-07T11:10:07.208Z,53.83
2019-04-07T11:11:07.870Z,53.35
2019-04-07T11:12:07.291Z,53.19
2019-04-07T11:13:07.635Z,53.02
2019-04-07T11:14:07.828Z,51.76
2019-04-07T11:15:08.084Z,50.60
2019-04-07T11:16:07.946Z,51.18
2019-04-07T11:17:08.072Z,49.73
2019-04-07T11:18:07.637Z,50.12
2019-04-07T11:19:07.787Z,49.99
2019-04-07T11:20:08.090Z,50.86
2019-04-07T11:21:07.554Z,50.57
2019-04-07T11:22:07.831Z,49.97
2019-04-07T11:23:08.443Z,49.77
2019-04-07T11:24:07.650Z,50.35
2019-04-07T11:25:07.680Z,51.49
2019-04-07T11:26:07.712Z,50.91
2019-04-07T11:27:08.126Z,50.31
2019-04-07T11:28:07.771Z,50.11
2019-04-07T11:29:08.500Z,50.01
2019-04-07T11:30:08.143Z,49.32
2019-04-07T11:31:08.102Z,49.99
2019-04-07T11:32:08.638Z,50.57
2019-04-07T11:33:07.917Z,50.28
2019-04-07T11:34:08.756Z,50.16
2019-04-07T11:35:07.973Z,50.26
2019-04-07T11:36:08.384Z,50.26
2019-04-07T11:37:09.848Z,50.74
2019-04-07T11:38:08.217Z,50.54
2019-04-07T11:39:08.954Z,50.57
2019-04-07T11:40:08.342Z,49.32
2019-04-07T11:41:08.141Z,49.32
2019-04-07T11:42:08.562Z,49.12
2019-04-07T11:43:08.771Z,49.15
2019-04-07T11:44:08.236Z,49.44
2019-04-07T11:45:08.288Z,48.79
2019-04-07T11:46:08.846Z,48.39
2019-04-07T11:47:08.833Z,48.11
2019-04-07T11:48:08.466Z,48.23
2019-04-07T11:49:10.760Z,48.13
2019-04-07T11:50:09.317Z,48.13
2019-04-07T11:51:08.443Z,47.36
2019-04-07T11:52:08.497Z,47.00
2019-04-07T11:53:09.068Z,46.12
2019-04-07T11:54:08.699Z,45.93
2019-04-07T11:55:08.633Z,46.34
2019-04-07T11:56:10.783Z,46.05
2019-04-07T11:57:08.675Z,46.34
2019-04-07T11:58:14.860Z,46.17
2019-04-07T11:59:09.153Z,47.14
2019-04-07T12:00:08.714Z,46.56
2019-04-07T12:01:12.766Z,46.17
2019-04-07T12:02:09.005Z,45.10
2019-04-07T12:03:09.542Z,44.81
2019-04-07T12:04:08.843Z,45.08
2019-04-07T12:05:09.772Z,44.89
2019-04-07T12:06:08.928Z,44.89
2019-04-07T12:07:09.006Z,45.86
2019-04-07T12:08:09.396Z,46.80
2019-04-07T12:09:09.003Z,46.42
2019-04-07T12:10:09.568Z,46.22
2019-04-07T12:11:09.710Z,45.91
2019-04-07T12:12:09.150Z,45.91
2019-04-07T12:13:09.133Z,45.31
2019-04-07T12:14:09.216Z,45.40
2019-04-07T12:15:09.546Z,45.59
2019-04-07T12:16:09.338Z,45.67
2019-04-07T12:17:09.398Z,46.06
2019-04-07T12:18:11.750Z,46.92
2019-04-07T12:19:10.515Z,46.33
2019-04-07T12:20:09.590Z,47.29
2019-04-07T12:21:09.361Z,46.71
2019-04-07T12:22:12.901Z,46.90
2019-04-07T12:23:09.421Z,46.49
2019-04-07T12:24:09.780Z,46.30
2019-04-07T12:25:09.475Z,46.11
2019-04-07T12:26:09.502Z,46.08
2019-04-07T12:27:11.647Z,46.18
2019-04-07T12:28:09.775Z,46.28
2019-04-07T12:29:09.986Z,45.99
2019-04-07T12:30:10.073Z,45.70
2019-04-07T12:31:10.272Z,45.77
2019-04-07T12:32:09.713Z,46.06
2019-04-07T12:33:09.896Z,46.64
2019-04-07T12:34:12.200Z,47.22
2019-04-07T12:35:09.738Z,46.81
2019-04-07T12:36:09.762Z,45.56
2019-04-07T12:37:10.271Z,45.27
2019-04-07T12:38:12.273Z,45.27
2019-04-07T12:39:10.426Z,45.27
2019-04-07T12:40:10.867Z,44.98
2019-04-07T12:41:16.614Z,44.21
2019-04-07T12:42:09.914Z,43.41
2019-04-07T12:43:13.175Z,43.03
2019-04-07T12:44:10.395Z,44.19
2019-04-07T12:45:10.063Z,45.73
2019-04-07T12:46:10.104Z,46.69
2019-04-07T12:47:10.214Z,47.08
2019-04-07T12:48:10.257Z,47.36
2019-04-07T12:49:10.081Z,48.03
2019-04-07T12:50:10.589Z,47.94
2019-04-07T12:51:10.129Z,48.33
2019-04-07T12:52:10.155Z,48.43
2019-04-07T12:53:10.185Z,48.52